createdAt,value
2023-03-25T00:03:20.366Z,99.90
2023-03-25T00:08:24.913Z,99.90
2023-03-25T00:13:28.031Z,99.90
2023-03-25T00:18:33.685Z,99.90
2023-03-25T00:23:36.608Z,99.90
2023-03-25T00:28:40.281Z,99.90
2023-03-25T00:33:44.735Z,99.90
2023-03-25T00:38:49.914Z,99.90
2023-03-25T00:43:53.962Z,99.90
2023-03-25T00:48:59.213Z,99.90
2023-03-25T00:54:02.159Z,99.90
2023-03-25T00:59:05.003Z,99.90
2023-03-25T01:04:12.448Z,99.90
2023-03-25T01:09:16.196Z,99.90
2023-03-25T01:14:21.783Z,99.90
2023-03-25T01:19:26.241Z,99.90
2023-03-25T01:24:29.975Z,99.90
2023-03-25T01:29:33.368Z,99.90
2023-03-25T01:34:38.550Z,99.90
2023-03-25T01:39:41.888Z,99.90
2023-03-25T01:45:20.233Z,99.90
2023-03-25T01:50:29.080Z,99.90
2023-03-25T01:55:34.679Z,99.90
2023-03-25T02:00:39.270Z,99.90
2023-03-25T02:05:51.080Z,99.90
2023-03-25T02:10:54.420Z,99.90
2023-03-25T02:16:22.645Z,99.90
2023-03-25T02:22:07.452Z,99.90
2023-03-25T02:27:27.471Z,99.90
2023-03-25T02:32:53.031Z,99.90
2023-03-25T02:37:58.420Z,99.90
2023-03-25T02:43:06.339Z,99.90
2023-03-25T02:48:17.137Z,99.90
2023-03-25T02:53:25.987Z,99.90
2023-03-25T02:58:31.863Z,99.90
2023-03-25T03:03:34.745Z,99.90
2023-03-25T03:09:04.115Z,99.90
2023-03-25T03:14:29.148Z,99.90
2023-03-25T03:19:39.570Z,99.90
2023-03-25T03:24:48.049Z,99.90
2023-03-25T03:30:04.367Z,99.90
2023-03-25T03:35:13.477Z,99.90
2023-03-25T03:40:20.266Z,99.90
2023-03-25T03:45:29.551Z,99.90
2023-03-25T03:50:37.636Z,99.90
2023-03-25T03:55:44.007Z,99.90
2023-03-25T04:00:59.827Z,99.90
2023-03-25T04:06:09.743Z,99.90
2023-03-25T04:11:18.538Z,99.90
2023-03-25T04:16:24.731Z,99.90
2023-03-25T04:21:30.011Z,99.90
2023-03-25T04:26:33.713Z,99.90
2023-03-25T04:31:46.084Z,99.90
2023-03-25T04:36:50.143Z,99.90
2023-03-25T04:41:54.407Z,99.90
2023-03-25T04:46:58.665Z,99.90
2023-03-25T04:52:04.232Z,99.90
2023-03-25T04:57:08.696Z,99.90
2023-03-25T05:02:14.203Z,99.90
2023-03-25T05:07:18.838Z,99.90
2023-03-25T05:12:22.775Z,99.90
2023-03-25T05:17:27.028Z,99.90
2023-03-25T05:22:30.079Z,99.90
2023-03-25T05:27:33.245Z,99.90
2023-03-25T05:32:41.276Z,99.90
2023-03-25T05:37:44.362Z,99.90
2023-03-25T05:42:48.924Z,99.90
2023-03-25T05:47:54.176Z,99.90
2023-03-25T05:52:57.360Z,99.90
2023-03-25T05:58:01.122Z,99.90
2023-03-25T06:03:07.849Z,99.90
2023-03-25T06:08:11.373Z,99.90
2023-03-25T06:13:15.348Z,99.90
2023-03-25T06:18:22.555Z,99.90
2023-03-25T06:23:26.492Z,99.90
2023-03-25T06:28:29.413Z,99.90
2023-03-25T06:33:43.296Z,99.90
2023-03-25T06:38:47.986Z,99.90
2023-03-25T06:43:51.751Z,99.90
2023-03-25T06:49:22.374Z,99.90
2023-03-25T06:54:26.321Z,99.90
2023-03-25T06:59:29.195Z,99.90
2023-03-25T07:04:33.413Z,99.90
2023-03-25T07:09:36.459Z,99.90
2023-03-25T07:14:39.366Z,99.90
2023-03-25T07:19:43.742Z,99.90
2023-03-25T07:24:47.007Z,99.90
2023-03-25T07:29:49.903Z,99.90
2023-03-25T07:34:54.248Z,99.90
2023-03-25T07:39:57.080Z,99.90
2023-03-25T07:45:00.048Z,99.90
2023-03-25T07:50:06.807Z,99.90
2023-03-25T07:55:11.289Z,99.90
2023-03-25T08:00:15.275Z,99.90
2023-03-25T08:05:21.497Z,99.90
2023-03-25T08:10:26.731Z,99.90
2023-03-25T08:15:30.040Z,99.90
2023-03-25T08:20:34.758Z,99.90
2023-03-25T08:25:38.017Z,99.90
2023-03-25T08:30:40.899Z,99.90
2023-03-25T08:35:45.980Z,99.90
2023-03-25T08:40:50.004Z,99.90
2023-03-25T08:45:53.210Z,99.90
2023-03-25T08:50:58.064Z,99.90
2023-03-25T08:56:01.189Z,99.90
2023-03-25T09:01:13.666Z,99.90
2023-03-25T09:06:18.402Z,99.90
2023-03-25T09:11:34.136Z,99.90
2023-03-25T09:16:39.226Z,99.90
2023-03-25T09:21:43.578Z,99.90
2023-03-25T09:26:46.532Z,99.90
2023-03-25T09:31:49.426Z,99.90
2023-03-25T09:36:53.771Z,99.90
2023-03-25T09:42:08.691Z,99.90
2023-03-25T09:47:14.953Z,99.90
2023-03-25T09:52:24.520Z,99.90
2023-03-25T09:57:30.663Z,99.90
2023-03-25T10:02:41.600Z,99.90
2023-03-25T10:08:01.480Z,99.90
2023-03-25T10:13:12.966Z,99.90
2023-03-25T10:18:34.145Z,99.90
2023-03-25T10:23:43.403Z,99.90
2023-03-25T10:28:53.936Z,99.90
2023-03-25T10:34:01.294Z,99.90
2023-03-25T10:39:12.693Z,99.90
2023-03-25T10:44:15.827Z,99.90
2023-03-25T10:49:22.050Z,99.90
2023-03-25T10:54:29.463Z,99.90
2023-03-25T10:59:37.037Z,99.90
2023-03-25T11:04:44.409Z,99.90
2023-03-25T11:09:49.658Z,99.90
2023-03-25T11:14:57.514Z,99.90
2023-03-25T11:20:05.743Z,99.90
2023-03-25T11:25:19.386Z,99.90
2023-03-25T11:30:24.630Z,99.90
2023-03-25T11:35:30.167Z,99.90
2023-03-25T11:40:36.411Z,99.90
2023-03-25T11:45:40.076Z,99.90
2023-03-25T11:50:47.495Z,99.90
2023-03-25T11:55:55.395Z,99.90
2023-03-25T12:01:02.478Z,99.90
2023-03-25T12:06:08.432Z,99.90
2023-03-25T12:11:17.942Z,99.90
2023-03-25T12:16:30.765Z,99.90
2023-03-25T12:21:49.885Z,99.90
2023-03-25T12:27:08.343Z,99.90
2023-03-25T12:32:23.380Z,99.90
2023-03-25T12:37:37.612Z,99.90
2023-03-25T12:42:49.583Z,99.90
2023-03-25T12:47:57.066Z,99.90
2023-03-25T12:53:07.424Z,99.90
2023-03-25T12:58:27.929Z,99.90
2023-03-25T13:04:05.146Z,99.90
2023-03-25T13:09:14.445Z,99.90
2023-03-25T13:14:24.430Z,99.90
2023-03-25T13:19:30.110Z,99.90
2023-03-25T13:24:40.499Z,99.90
2023-03-25T13:29:47.487Z,99.90
2023-03-25T13:35:09.161Z,99.90
2023-03-25T13:40:24.426Z,99.90
2023-03-25T13:45:32.478Z,99.90
2023-03-25T13:50:36.508Z,99.90
2023-03-25T13:55:54.129Z,99.90
2023-03-25T14:01:36.596Z,99.90
2023-03-25T14:07:07.257Z,99.90
2023-03-25T14:12:13.026Z,99.90
2023-03-25T14:17:19.014Z,99.90
2023-03-25T14:22:24.173Z,99.90
2023-03-25T14:27:31.178Z,99.90
2023-03-25T14:32:38.274Z,99.90
2023-03-25T14:37:41.794Z,99.90
2023-03-25T14:42:59.570Z,99.90
2023-03-25T14:48:19.360Z,99.90
2023-03-25T14:53:28.400Z,99.90
2023-03-25T14:58:31.664Z,99.90
2023-03-25T15:03:38.879Z,99.90
2023-03-25T15:08:43.765Z,99.90
2023-03-25T15:13:52.650Z,99.90
2023-03-25T15:19:06.528Z,99.90
2023-03-25T15:24:11.758Z,99.90
2023-03-25T15:29:47.759Z,99.90
2023-03-25T15:35:08.280Z,99.90
2023-03-25T15:40:22.997Z,99.90
2023-03-25T15:45:48.501Z,99.90
2023-03-25T15:51:08.010Z,99.90
2023-03-25T15:56:13.563Z,99.90
2023-03-25T16:01:24.492Z,99.90
2023-03-25T16:06:30.773Z,99.90
2023-03-25T16:11:33.668Z,99.90
2023-03-25T16:16:40.557Z,99.90
2023-03-25T16:21:48.629Z,99.90
2023-03-25T16:26:52.693Z,99.90
2023-03-25T16:31:58.634Z,99.90
2023-03-25T16:37:03.610Z,99.80
2023-03-25T16:42:14.347Z,99.20
2023-03-25T16:47:17.646Z,98.10
2023-03-25T16:52:26.646Z,97.40
2023-03-25T16:57:33.408Z,97.30
2023-03-25T17:02:41.307Z,97.10
2023-03-25T17:07:47.201Z,96.80
2023-03-25T17:12:57.548Z,96.90
2023-03-25T17:18:01.421Z,96.60
2023-03-25T17:23:08.386Z,96.50
2023-03-25T17:28:28.737Z,96.90
2023-03-25T17:33:35.516Z,97.70
2023-03-25T17:38:45.000Z,97.90
2023-03-25T17:43:51.188Z,97.40
2023-03-25T17:48:57.211Z,97.40
2023-03-25T17:54:01.539Z,98.10
2023-03-25T17:59:07.324Z,99.50
2023-03-25T18:04:14.284Z,99.90
2023-03-25T18:09:21.883Z,99.90
2023-03-25T18:14:26.062Z,99.90
2023-03-25T18:19:31.924Z,99.90
2023-03-25T18:24:36.458Z,99.90
2023-03-25T18:29:39.756Z,99.90
2023-03-25T18:34:42.975Z,99.90
2023-03-25T18:39:47.354Z,99.90
2023-03-25T18:44:52.619Z,99.90
2023-03-25T18:49:57.072Z,99.90
2023-03-25T18:55:01.337Z,99.90
2023-03-25T19:00:14.090Z,99.90
2023-03-25T19:05:17.552Z,99.90
2023-03-25T19:10:23.995Z,99.90
2023-03-25T19:15:28.850Z,99.90
2023-03-25T19:20:34.104Z,99.90
2023-03-25T19:25:38.441Z,99.90
2023-03-25T19:30:43.845Z,99.90
2023-03-25T19:35:51.162Z,99.90
2023-03-25T19:41:05.355Z,99.90
2023-03-25T19:46:08.601Z,99.90
2023-03-25T19:51:11.490Z,99.90
2023-03-25T19:56:15.901Z,99.90
2023-03-25T20:01:19.021Z,99.90
2023-03-25T20:06:21.921Z,99.90
2023-03-25T20:11:26.149Z,99.90
2023-03-25T20:16:30.769Z,99.90
2023-03-25T20:21:33.712Z,99.90
2023-03-25T20:26:37.930Z,99.90
2023-03-25T20:31:40.862Z,99.90
2023-03-25T20:36:44.814Z,99.90
2023-03-25T20:41:49.056Z,99.90
2023-03-25T20:46:52.276Z,99.90
2023-03-25T20:51:57.167Z,99.90
2023-03-25T20:57:01.602Z,99.90
2023-03-25T21:02:05.121Z,99.90
2023-03-25T21:07:10.223Z,99.90
2023-03-25T21:12:14.766Z,99.90
2023-03-25T21:17:17.655Z,99.90
2023-03-25T21:22:20.522Z,99.90
2023-03-25T21:27:39.354Z,99.90
2023-03-25T21:32:43.365Z,99.90
2023-03-25T21:37:48.971Z,99.90
2023-03-25T21:42:53.173Z,99.90
2023-03-25T21:47:56.105Z,99.90
2023-03-25T21:53:03.162Z,99.90
2023-03-25T21:58:12.911Z,99.90
2023-03-25T22:03:17.185Z,99.90
2023-03-25T22:08:20.070Z,99.90
2023-03-25T22:13:24.332Z,99.90
2023-03-25T22:18:27.686Z,99.90
2023-03-25T22:23:30.542Z,99.90
2023-03-25T22:28:35.369Z,99.90
2023-03-25T22:33:38.281Z,99.90
2023-03-25T22:38:41.521Z,99.90
2023-03-25T22:43:57.410Z,99.90
2023-03-25T22:49:00.641Z,99.90
2023-03-25T22:54:05.149Z,99.90
2023-03-25T22:59:11.310Z,99.90
2023-03-25T23:04:14.626Z,99.90
2023-03-25T23:09:37.947Z,99.90
2023-03-25T23:14:44.092Z,99.90
2023-03-25T23:19:47.226Z,99.90
2023-03-25T23:24:50.148Z,99.90
2023-03-25T23:29:54.552Z,99.90
2023-03-25T23:34:58.351Z,99.90
2023-03-25T23:40:01.608Z,99.90
2023-03-25T23:45:06.645Z,99.90
2023-03-25T23:50:14.253Z,99.90
2023-03-25T23:55:17.843Z,99.90
